createdAt,value
2024-01-10T00:01:34.376Z,77.82
2024-01-10T00:04:22.900Z,77.32
2024-01-10T00:07:11.459Z,77.21
2024-01-10T00:10:01.479Z,77.23
2024-01-10T00:12:49.963Z,77.46
2024-01-10T00:15:38.416Z,77.68
2024-01-10T00:18:27.238Z,77.96
2024-01-10T00:21:15.471Z,78.20
2024-01-10T00:24:04.365Z,78.46
2024-01-10T00:26:52.726Z,78.50
2024-01-10T00:29:41.224Z,78.18
2024-01-10T00:32:29.836Z,77.89
2024-01-10T00:35:18.702Z,77.79
2024-01-10T00:38:07.177Z,77.75
2024-01-10T00:40:56.856Z,77.55
2024-01-10T00:43:45.414Z,77.49
2024-01-10T00:46:33.956Z,77.45
2024-01-10T00:49:22.496Z,77.27
2024-01-10T00:52:10.974Z,77.18
2024-01-10T00:54:59.409Z,77.14
2024-01-10T00:57:51.261Z,77.19
2024-01-10T01:00:39.803Z,77.19
2024-01-10T01:03:28.374Z,77.23
2024-01-10T01:06:16.914Z,77.05
2024-01-10T01:09:05.522Z,76.86
2024-01-10T01:11:53.965Z,76.81
2024-01-10T01:14:42.596Z,76.97
2024-01-10T01:17:31.078Z,77.15
2024-01-10T01:20:19.664Z,77.36
2024-01-10T01:23:08.249Z,77.47
2024-01-10T01:25:56.813Z,77.64
2024-01-10T01:28:45.426Z,77.65
2024-01-10T01:31:33.949Z,77.64
2024-01-10T01:34:22.445Z,77.71
2024-01-10T01:37:10.981Z,77.78
2024-01-10T01:39:59.552Z,77.75
2024-01-10T01:42:48.740Z,77.88
2024-01-10T01:45:36.942Z,78.07
2024-01-10T01:48:26.211Z,78.07
2024-01-10T01:51:15.627Z,78.10
2024-01-10T01:54:03.922Z,78.03
2024-01-10T01:56:52.556Z,78.11
2024-01-10T01:59:41.061Z,78.16
2024-01-10T02:02:30.249Z,78.12
2024-01-10T02:05:18.926Z,78.13
2024-01-10T02:08:07.778Z,78.20
2024-01-10T02:10:56.359Z,78.22
2024-01-10T02:13:44.906Z,78.25
2024-01-10T02:16:33.854Z,78.09
2024-01-10T02:19:23.314Z,77.99
2024-01-10T02:22:12.107Z,78.04
2024-01-10T02:25:00.531Z,78.21
2024-01-10T02:27:49.290Z,78.21
2024-01-10T02:30:37.437Z,78.12
2024-01-10T02:33:26.133Z,77.99
2024-01-10T02:36:14.660Z,77.93
2024-01-10T02:39:03.148Z,77.91
2024-01-10T02:41:51.550Z,77.80
2024-01-10T02:44:40.118Z,77.66
2024-01-10T02:47:29.775Z,77.63
2024-01-10T02:50:18.437Z,77.57
2024-01-10T02:53:07.076Z,77.43
2024-01-10T02:55:55.526Z,77.37
2024-01-10T02:58:44.004Z,77.22
2024-01-10T03:01:32.835Z,77.07
2024-01-10T03:04:21.367Z,77.22
2024-01-10T03:07:09.836Z,77.31
2024-01-10T03:09:58.396Z,77.27
2024-01-10T03:12:46.809Z,77.03
2024-01-10T03:15:35.249Z,76.85
2024-01-10T03:18:24.951Z,76.83
2024-01-10T03:21:13.542Z,77.05
2024-01-10T03:24:02.343Z,77.15
2024-01-10T03:26:50.778Z,77.34
2024-01-10T03:29:39.452Z,77.36
2024-01-10T03:32:28.084Z,77.40
2024-01-10T03:35:16.799Z,77.49
2024-01-10T03:38:05.597Z,77.59
2024-01-10T03:40:54.153Z,77.73
2024-01-10T03:43:42.845Z,77.87
2024-01-10T03:46:31.376Z,77.84
2024-01-10T03:49:20.063Z,77.82
2024-01-10T03:52:08.878Z,77.91
2024-01-10T03:54:58.214Z,78.03
2024-01-10T03:57:46.689Z,78.11
2024-01-10T04:00:35.171Z,78.04
2024-01-10T04:03:23.750Z,78.07
2024-01-10T04:06:12.440Z,78.25
2024-01-10T04:09:03.522Z,78.30
2024-01-10T04:11:51.982Z,78.50
2024-01-10T04:14:40.528Z,78.77
2024-01-10T04:17:29.145Z,78.96
2024-01-10T04:20:18.086Z,78.98
2024-01-10T04:23:06.781Z,78.98
2024-01-10T04:25:55.548Z,79.10
2024-01-10T04:28:44.044Z,79.37
2024-01-10T04:31:32.625Z,79.48
2024-01-10T04:34:21.250Z,79.54
2024-01-10T04:37:09.817Z,79.61
2024-01-10T04:39:58.313Z,79.58
2024-01-10T04:42:47.460Z,79.51
2024-01-10T04:45:35.924Z,79.62
2024-01-10T04:48:24.552Z,79.73
2024-01-10T04:51:13.544Z,79.83
2024-01-10T04:54:01.746Z,79.78
2024-01-10T04:56:50.199Z,79.82
2024-01-10T04:59:38.728Z,79.92
2024-01-10T05:02:27.445Z,79.83
2024-01-10T05:05:16.051Z,79.80
2024-01-10T05:08:05.173Z,79.86
2024-01-10T05:10:53.628Z,79.98
2024-01-10T05:13:42.198Z,79.99
2024-01-10T05:16:30.945Z,80.07
2024-01-10T05:19:19.555Z,80.11
2024-01-10T05:22:08.225Z,80.04
2024-01-10T05:24:56.719Z,79.95
2024-01-10T05:27:45.259Z,79.96
2024-01-10T05:30:33.810Z,79.94
2024-01-10T05:33:22.396Z,79.98
2024-01-10T05:36:12.134Z,80.06
2024-01-10T05:39:00.283Z,80.17
2024-01-10T05:41:48.757Z,80.34
2024-01-10T05:44:37.294Z,80.44
2024-01-10T05:47:26.806Z,80.64
2024-01-10T05:50:15.610Z,80.72
2024-01-10T05:53:04.823Z,80.70
2024-01-10T05:55:53.584Z,80.70
2024-01-10T05:58:42.134Z,80.77
2024-01-10T06:01:30.674Z,80.81
2024-01-10T06:04:19.178Z,80.80
2024-01-10T06:07:07.672Z,80.70
2024-01-10T06:09:56.153Z,80.54
2024-01-10T06:12:44.625Z,80.55
2024-01-10T06:15:33.138Z,80.84
2024-01-10T06:18:21.683Z,80.98
2024-01-10T06:21:11.496Z,81.01
2024-01-10T06:23:59.709Z,80.92
2024-01-10T06:26:50.096Z,80.70
2024-01-10T06:29:38.545Z,80.54
2024-01-10T06:32:27.172Z,80.40
2024-01-10T06:35:16.096Z,80.49
2024-01-10T06:38:05.001Z,80.54
2024-01-10T06:40:53.820Z,80.71
2024-01-10T06:43:42.482Z,80.71
2024-01-10T06:46:32.426Z,80.82
2024-01-10T06:49:21.608Z,80.75
2024-01-10T06:52:10.295Z,80.59
2024-01-10T06:54:58.804Z,80.54
2024-01-10T06:57:49.228Z,80.51
2024-01-10T07:00:38.794Z,80.51
2024-01-10T07:03:27.245Z,80.67
2024-01-10T07:06:16.052Z,80.84
2024-01-10T07:09:05.974Z,80.88
2024-01-10T07:11:54.403Z,80.93
2024-01-10T07:14:42.897Z,81.07
2024-01-10T07:17:31.603Z,81.09
2024-01-10T07:20:20.526Z,81.13
2024-01-10T07:23:11.224Z,81.19
2024-01-10T07:25:59.863Z,81.03
2024-01-10T07:28:48.514Z,80.92
2024-01-10T07:31:37.169Z,80.87
2024-01-10T07:34:25.643Z,80.81
2024-01-10T07:37:17.218Z,80.57
2024-01-10T07:40:07.090Z,80.44
2024-01-10T07:42:56.367Z,80.26
2024-01-10T07:45:44.360Z,80.26
2024-01-10T07:48:33.105Z,80.52
2024-01-10T07:51:22.354Z,80.78
2024-01-10T07:54:10.887Z,80.83
2024-01-10T07:56:59.473Z,80.86
2024-01-10T07:59:47.927Z,80.85
2024-01-10T08:02:37.467Z,80.99
2024-01-10T08:05:26.169Z,81.07
2024-01-10T08:08:14.502Z,81.01
2024-01-10T08:11:03.379Z,81.07
2024-01-10T08:13:52.042Z,80.98
2024-01-10T08:16:40.564Z,81.01
2024-01-10T08:19:29.141Z,80.94
2024-01-10T08:22:17.676Z,80.89
2024-01-10T08:25:07.413Z,80.77
2024-01-10T08:27:57.437Z,80.40
2024-01-10T08:30:46.074Z,79.96
2024-01-10T08:33:34.701Z,79.56
2024-01-10T08:36:24.738Z,79.42
2024-01-10T08:39:13.837Z,79.41
2024-01-10T08:42:02.599Z,79.44
2024-01-10T08:44:50.727Z,79.54
2024-01-10T08:47:39.210Z,79.53
2024-01-10T08:50:27.768Z,79.53
2024-01-10T08:53:16.701Z,79.24
2024-01-10T08:56:06.040Z,79.14
2024-01-10T08:58:54.551Z,79.06
2024-01-10T09:01:43.369Z,78.87
2024-01-10T09:04:31.687Z,78.73
2024-01-10T09:07:22.069Z,78.72
2024-01-10T09:10:10.540Z,78.40
2024-01-10T09:12:59.222Z,77.94
2024-01-10T09:15:47.652Z,77.75
2024-01-10T09:18:36.328Z,77.79
2024-01-10T09:21:25.169Z,77.93
2024-01-10T09:24:22.225Z,78.11
2024-01-10T09:27:16.977Z,78.19
2024-01-10T09:30:09.081Z,78.38
2024-01-10T09:32:57.640Z,78.50
2024-01-10T09:35:46.421Z,78.68
2024-01-10T09:38:37.309Z,78.86
2024-01-10T09:41:29.296Z,79.09
2024-01-10T09:44:19.018Z,79.30
2024-01-10T09:47:07.505Z,79.26
2024-01-10T09:49:56.030Z,79.17
2024-01-10T09:52:50.983Z,78.81
2024-01-10T09:55:39.610Z,78.69
2024-01-10T09:58:28.109Z,78.54
2024-01-10T10:01:17.433Z,78.34
2024-01-10T10:04:08.257Z,77.86
2024-01-10T10:07:01.780Z,77.76
2024-01-10T10:09:50.500Z,77.40
2024-01-10T10:12:45.796Z,77.13
2024-01-10T10:15:33.812Z,76.92
2024-01-10T10:18:23.153Z,76.67
2024-01-10T10:21:12.852Z,76.57
2024-01-10T10:24:02.304Z,76.60
2024-01-10T10:26:50.891Z,76.83
2024-01-10T10:29:40.515Z,76.87
2024-01-10T10:32:29.263Z,76.68
2024-01-10T10:35:29.353Z,76.73
2024-01-10T10:38:25.564Z,76.54
2024-01-10T10:41:15.104Z,76.19
2024-01-10T10:44:05.800Z,76.09
2024-01-10T10:47:05.858Z,76.00
2024-01-10T10:50:02.902Z,76.00
2024-01-10T10:52:51.904Z,75.98
2024-01-10T10:55:41.288Z,75.72
2024-01-10T10:58:30.356Z,75.48
2024-01-10T11:01:19.518Z,75.31
2024-01-10T11:04:07.887Z,75.13
2024-01-10T11:06:56.678Z,75.22
2024-01-10T11:09:47.359Z,74.97
2024-01-10T11:12:46.440Z,74.78
2024-01-10T11:15:50.137Z,74.63
2024-01-10T11:18:49.296Z,74.79
2024-01-10T11:21:44.718Z,74.79
2024-01-10T11:24:33.314Z,74.57
2024-01-10T11:27:23.315Z,74.63
2024-01-10T11:30:13.180Z,74.90
2024-01-10T11:33:03.402Z,74.89
2024-01-10T11:36:10.738Z,74.82
2024-01-10T11:39:02.250Z,75.09
2024-01-10T11:41:51.548Z,75.23
2024-01-10T11:44:50.314Z,75.27
2024-01-10T11:47:40.204Z,75.35
2024-01-10T11:50:28.552Z,75.43
2024-01-10T11:53:40.151Z,75.46
2024-01-10T11:56:43.140Z,75.69
2024-01-10T11:59:32.611Z,75.45
2024-01-10T12:02:21.740Z,75.22
2024-01-10T12:05:10.884Z,74.79
2024-01-10T12:07:59.877Z,73.92
2024-01-10T12:10:48.111Z,73.17
2024-01-10T12:13:37.041Z,72.72
2024-01-10T12:16:25.587Z,72.30
2024-01-10T12:19:14.221Z,71.97
2024-01-10T12:22:04.186Z,71.54
2024-01-10T12:24:53.822Z,71.03
2024-01-10T12:27:42.321Z,69.70
2024-01-10T12:30:31.582Z,69.95
2024-01-10T12:33:24.274Z,70.06
2024-01-10T12:36:12.617Z,70.14
2024-01-10T12:39:01.547Z,69.99
2024-01-10T12:41:51.124Z,68.33
2024-01-10T12:44:44.192Z,67.86
2024-01-10T12:47:35.799Z,67.48
2024-01-10T12:50:25.658Z,67.86
2024-01-10T12:53:14.106Z,68.08
2024-01-10T12:56:02.683Z,68.51
2024-01-10T12:58:51.163Z,68.87
2024-01-10T13:01:39.722Z,69.17
2024-01-10T13:04:28.268Z,69.21
2024-01-10T13:07:16.949Z,69.51
2024-01-10T13:10:06.133Z,69.73
2024-01-10T13:12:54.799Z,70.10
2024-01-10T13:15:43.413Z,70.16
2024-01-10T13:18:32.199Z,70.23
2024-01-10T13:21:21.241Z,69.78
2024-01-10T13:24:09.876Z,69.86
2024-01-10T13:26:58.604Z,69.92
2024-01-10T13:29:47.092Z,69.78
2024-01-10T13:32:35.692Z,69.64
2024-01-10T13:35:24.875Z,69.74
2024-01-10T13:38:13.062Z,69.88
2024-01-10T13:41:01.988Z,69.67
2024-01-10T13:43:50.522Z,69.92
2024-01-10T13:46:39.577Z,70.00
2024-01-10T13:49:27.754Z,70.13
2024-01-10T13:52:16.442Z,70.29
2024-01-10T13:55:05.570Z,70.63
2024-01-10T13:57:54.078Z,71.24
2024-01-10T14:00:44.863Z,71.54
2024-01-10T14:03:34.107Z,71.80
2024-01-10T14:06:22.892Z,71.73
2024-01-10T14:09:11.947Z,71.70
2024-01-10T14:12:00.439Z,71.87
2024-01-10T14:14:48.935Z,72.05
2024-01-10T14:17:37.461Z,72.13
2024-01-10T14:20:26.039Z,72.34
2024-01-10T14:23:14.783Z,72.57
2024-01-10T14:26:06.158Z,72.51
2024-01-10T14:28:56.333Z,72.56
2024-01-10T14:34:40.334Z,72.68
2024-01-10T14:37:28.571Z,72.88
2024-01-10T14:40:17.182Z,72.89
2024-01-10T14:43:05.736Z,72.83
2024-01-10T14:45:54.224Z,72.37
2024-01-10T14:48:43.021Z,72.25
2024-01-10T14:51:31.531Z,72.43
2024-01-10T14:54:21.683Z,72.67
2024-01-10T14:57:10.199Z,72.96
2024-01-10T15:00:00.582Z,73.22
2024-01-10T15:02:49.070Z,73.47
2024-01-10T15:05:37.791Z,73.87
2024-01-10T15:08:26.469Z,74.20
2024-01-10T15:11:15.137Z,74.53
2024-01-10T15:14:04.095Z,74.77
2024-01-10T15:16:54.112Z,75.14
2024-01-10T15:19:42.773Z,75.47
2024-01-10T15:22:31.562Z,75.68
2024-01-10T15:25:23.077Z,76.14
2024-01-10T15:28:11.559Z,76.57
2024-01-10T15:31:01.410Z,77.14
2024-01-10T15:33:49.994Z,77.58
2024-01-10T15:36:41.749Z,77.84
2024-01-10T15:39:30.781Z,78.05
2024-01-10T15:42:19.352Z,78.15
2024-01-10T15:45:09.471Z,78.33
2024-01-10T15:47:58.043Z,78.52
2024-01-10T15:50:46.582Z,78.46
2024-01-10T15:53:35.808Z,78.49
2024-01-10T15:56:24.802Z,78.54
2024-01-10T15:59:13.567Z,78.41
2024-01-10T16:02:03.234Z,78.34
2024-01-10T16:04:51.397Z,78.30
2024-01-10T16:07:40.322Z,78.02
2024-01-10T16:10:30.043Z,77.97
2024-01-10T16:13:18.778Z,77.88
2024-01-10T16:16:09.464Z,77.51
2024-01-10T16:18:58.021Z,77.56
2024-01-10T16:21:46.505Z,77.47
2024-01-10T16:24:35.037Z,77.56
2024-01-10T16:27:24.768Z,77.56
2024-01-10T16:30:13.907Z,77.62
2024-01-10T16:33:02.455Z,77.85
2024-01-10T16:35:50.967Z,77.89
2024-01-10T16:38:40.340Z,77.96
2024-01-10T16:41:28.977Z,78.06
2024-01-10T16:44:17.616Z,78.13
2024-01-10T16:47:06.810Z,78.35
2024-01-10T16:49:55.326Z,78.57
2024-01-10T16:52:44.191Z,78.78
2024-01-10T16:55:32.816Z,78.78
2024-01-10T16:58:21.635Z,78.99
2024-01-10T17:01:12.229Z,79.07
2024-01-10T17:04:00.816Z,79.24
2024-01-10T17:06:49.398Z,79.46
2024-01-10T17:09:40.096Z,79.65
2024-01-10T17:12:28.728Z,79.88
2024-01-10T17:15:19.579Z,80.06
2024-01-10T17:18:08.205Z,80.36
2024-01-10T17:20:56.752Z,80.58
2024-01-10T17:23:46.938Z,80.77
2024-01-10T17:26:35.613Z,81.04
2024-01-10T17:29:24.133Z,81.30
2024-01-10T17:32:12.783Z,81.45
2024-01-10T17:35:01.332Z,81.75
2024-01-10T17:37:49.992Z,82.33
2024-01-10T17:40:39.520Z,82.82
2024-01-10T17:43:27.625Z,83.35
2024-01-10T17:46:18.962Z,83.79
2024-01-10T17:49:08.524Z,84.20
2024-01-10T17:51:57.015Z,84.64
2024-01-10T17:54:46.842Z,84.98
2024-01-10T17:57:35.350Z,85.29
2024-01-10T18:00:28.569Z,85.53
2024-01-10T18:03:17.294Z,85.82
2024-01-10T18:06:06.783Z,86.03
2024-01-10T18:08:55.201Z,86.17
2024-01-10T18:11:43.715Z,86.15
2024-01-10T18:14:34.276Z,86.03
2024-01-10T18:17:22.942Z,85.89
2024-01-10T18:20:15.820Z,85.70
2024-01-10T18:23:04.425Z,85.46
2024-01-10T18:25:52.865Z,85.16
2024-01-10T18:28:41.823Z,84.83
2024-01-10T18:31:30.386Z,84.56
2024-01-10T18:34:19.145Z,84.32
2024-01-10T18:37:08.869Z,83.98
2024-01-10T18:39:57.060Z,83.86
2024-01-10T18:42:46.739Z,83.72
2024-01-10T18:45:35.169Z,83.60
2024-01-10T18:48:23.786Z,83.28
2024-01-10T18:51:13.424Z,83.03
2024-01-10T18:54:02.738Z,82.89
2024-01-10T18:56:51.154Z,82.77
2024-01-10T18:59:39.637Z,82.70
2024-01-10T19:02:28.225Z,82.33
2024-01-10T19:05:17.415Z,82.15
2024-01-10T19:08:06.105Z,82.04
2024-01-10T19:10:54.979Z,82.11
2024-01-10T19:13:43.475Z,82.19
2024-01-10T19:16:32.448Z,82.10
2024-01-10T19:19:23.093Z,82.16
2024-01-10T19:22:11.531Z,82.17
2024-01-10T19:24:59.982Z,82.21
2024-01-10T19:27:48.860Z,82.20
2024-01-10T19:30:37.424Z,81.97
2024-01-10T19:33:26.395Z,81.87
2024-01-10T19:36:14.988Z,81.73
2024-01-10T19:39:04.608Z,81.65
2024-01-10T19:41:54.072Z,81.59
2024-01-10T19:44:42.510Z,81.34
2024-01-10T19:47:31.109Z,81.17
2024-01-10T19:50:19.770Z,81.12
2024-01-10T19:53:10.111Z,81.05
2024-01-10T19:55:58.210Z,81.14
2024-01-10T19:58:46.748Z,81.77
2024-01-10T20:01:35.151Z,82.42
2024-01-10T20:04:23.681Z,83.16
2024-01-10T20:07:12.161Z,83.78
2024-01-10T20:10:00.813Z,84.27
2024-01-10T20:12:49.353Z,84.71
2024-01-10T20:15:37.940Z,85.26
2024-01-10T20:18:26.755Z,85.43
2024-01-10T20:21:15.976Z,85.27
2024-01-10T20:24:05.145Z,85.31
2024-01-10T20:26:53.562Z,85.12
2024-01-10T20:29:45.296Z,85.06
2024-01-10T20:32:33.860Z,85.01
2024-01-10T20:35:22.997Z,84.89
2024-01-10T20:38:11.567Z,84.99
2024-01-10T20:40:59.992Z,84.87
2024-01-10T20:43:48.648Z,84.88
2024-01-10T20:46:37.343Z,84.88
2024-01-10T20:49:25.876Z,84.79
2024-01-10T20:52:15.635Z,84.67
2024-01-10T20:55:04.506Z,84.62
2024-01-10T20:57:54.381Z,84.59
2024-01-10T21:00:42.922Z,84.62
2024-01-10T21:03:32.829Z,84.62
2024-01-10T21:06:21.503Z,84.65
2024-01-10T21:09:12.053Z,84.60
2024-01-10T21:12:00.462Z,84.65
2024-01-10T21:14:50.402Z,84.71
2024-01-10T21:17:39.154Z,84.83
2024-01-10T21:20:29.038Z,84.76
2024-01-10T21:23:19.584Z,84.83
2024-01-10T21:26:08.437Z,84.89
2024-01-10T21:28:57.052Z,84.93
2024-01-10T21:31:45.526Z,85.01
2024-01-10T21:34:34.638Z,84.94
2024-01-10T21:37:23.087Z,84.86
2024-01-10T21:40:12.219Z,84.73
2024-01-10T21:43:00.652Z,84.75
2024-01-10T21:45:49.061Z,84.69
2024-01-10T21:48:37.693Z,84.46
2024-01-10T21:51:26.202Z,84.22
2024-01-10T21:54:14.657Z,84.04
2024-01-10T21:57:03.183Z,83.97
2024-01-10T21:59:51.581Z,83.85
2024-01-10T22:02:40.097Z,83.84
2024-01-10T22:05:29.858Z,83.86
2024-01-10T22:08:18.397Z,83.91
2024-01-10T22:11:06.891Z,83.83
2024-01-10T22:13:57.005Z,83.82
2024-01-10T22:16:45.908Z,83.95
2024-01-10T22:19:34.520Z,83.94
2024-01-10T22:22:24.569Z,83.86
2024-01-10T22:25:13.146Z,83.82
2024-01-10T22:28:01.749Z,83.54
2024-01-10T22:30:51.067Z,83.34
2024-01-10T22:33:39.682Z,83.20
2024-01-10T22:36:28.301Z,83.00
2024-01-10T22:39:16.762Z,82.89
2024-01-10T22:42:05.779Z,82.85
2024-01-10T22:44:54.295Z,82.75
2024-01-10T22:47:43.003Z,82.74
2024-01-10T22:50:31.651Z,82.77
2024-01-10T22:53:20.668Z,82.85
2024-01-10T22:56:09.555Z,82.78
2024-01-10T22:58:58.420Z,82.79
2024-01-10T23:01:47.089Z,82.79
2024-01-10T23:04:35.753Z,82.85
2024-01-10T23:07:24.264Z,82.92
2024-01-10T23:10:14.229Z,82.96
2024-01-10T23:13:05.914Z,83.08
2024-01-10T23:15:54.622Z,83.08
2024-01-10T23:18:43.343Z,83.13
2024-01-10T23:21:33.434Z,83.20
2024-01-10T23:24:22.037Z,83.19
2024-01-10T23:27:10.732Z,83.25
2024-01-10T23:30:04.571Z,83.30
2024-01-10T23:32:53.336Z,83.39
2024-01-10T23:35:48.181Z,83.40
2024-01-10T23:38:38.469Z,83.50
2024-01-10T23:41:26.825Z,83.77
2024-01-10T23:44:15.865Z,83.92
2024-01-10T23:47:04.687Z,83.75
2024-01-10T23:49:53.456Z,83.57
2024-01-10T23:52:42.069Z,83.54
2024-01-10T23:55:32.641Z,83.35
2024-01-10T23:58:21.281Z,83.42
